createdAt,value
2023-01-05T00:00:09.681Z,100290.28
2023-01-05T00:02:36.358Z,100295.47
2023-01-05T00:05:03.122Z,100290.97
2023-01-05T00:07:29.653Z,100278.75
2023-01-05T00:09:56.202Z,100280.44
2023-01-05T00:12:41.337Z,100276.97
2023-01-05T00:15:28.072Z,100280.34
2023-01-05T00:18:13.238Z,100282.03
2023-01-05T00:23:41.918Z,100293.94
2023-01-05T00:26:08.534Z,100290.44
2023-01-05T00:28:35.144Z,100299.03
2023-01-05T00:31:03.839Z,100300.88
2023-01-05T00:33:30.408Z,100295.78
2023-01-05T00:35:56.967Z,100288.94
2023-01-05T00:38:23.533Z,100300.19
2023-01-05T00:40:50.200Z,100294.16
2023-01-05T00:43:18.136Z,100287.28
2023-01-05T00:45:44.840Z,100283.88
2023-01-05T00:48:12.159Z,100294.22
2023-01-05T00:50:38.752Z,100291.56
2023-01-05T00:53:05.372Z,100297.66
2023-01-05T00:55:33.172Z,100289.59
2023-01-05T00:57:59.674Z,100292.09
2023-01-05T01:00:26.244Z,100297.97
2023-01-05T01:02:53.215Z,100283.31
2023-01-05T01:05:19.927Z,100290.16
2023-01-05T01:07:48.711Z,100286.69
2023-01-05T01:10:16.139Z,100295.25
2023-01-05T01:15:08.725Z,100293.47
2023-01-05T01:17:35.128Z,100309.88
2023-01-05T01:20:01.543Z,100302.91
2023-01-05T01:22:27.949Z,100290.06
2023-01-05T01:24:54.491Z,100300.38
2023-01-05T01:27:20.914Z,100291.75
2023-01-05T01:29:47.358Z,100298.59
2023-01-05T01:32:13.805Z,100304.72
2023-01-05T01:34:40.233Z,100306.34
2023-01-05T01:37:06.656Z,100313.28
2023-01-05T01:39:33.149Z,100308.16
2023-01-05T01:41:59.561Z,100307.19
2023-01-05T01:44:48.173Z,100307.16
2023-01-05T01:47:18.821Z,100312.34
2023-01-05T01:49:45.445Z,100322.72
2023-01-05T01:52:12.067Z,100311.50
2023-01-05T01:54:38.863Z,100311.47
2023-01-05T01:57:05.372Z,100316.56
2023-01-05T01:59:31.902Z,100307.88
2023-01-05T02:02:00.976Z,100315.72
2023-01-05T02:04:29.794Z,100321.03
2023-01-05T02:06:56.298Z,100315.00
2023-01-05T02:09:22.732Z,100316.84
2023-01-05T02:11:58.447Z,100304.69
2023-01-05T02:14:40.816Z,100323.75
2023-01-05T02:17:21.889Z,100320.38
2023-01-05T02:20:07.007Z,100316.81
2023-01-05T02:22:53.434Z,100310.78
2023-01-05T02:25:41.374Z,100317.59
2023-01-05T02:28:19.786Z,100312.41
2023-01-05T02:31:03.948Z,100321.75
2023-01-05T02:33:43.522Z,100318.47
2023-01-05T02:36:33.017Z,100304.59
2023-01-05T02:39:25.830Z,100291.75
2023-01-05T02:42:05.346Z,100298.59
2023-01-05T02:44:33.537Z,100302.97
2023-01-05T02:47:27.948Z,100316.81
2023-01-05T02:50:00.895Z,100306.47
2023-01-05T02:52:27.500Z,100309.06
2023-01-05T02:55:01.379Z,100315.19
2023-01-05T02:57:47.858Z,100303.25
2023-01-05T03:00:18.938Z,100310.03
2023-01-05T03:02:49.376Z,100300.44
2023-01-05T03:05:22.975Z,100305.75
2023-01-05T03:07:50.876Z,100301.47
2023-01-05T03:10:36.048Z,100312.66
2023-01-05T03:13:24.619Z,100309.31
2023-01-05T03:15:52.347Z,100317.84
2023-01-05T03:18:20.385Z,100307.53
2023-01-05T03:20:49.448Z,100312.03
2023-01-05T03:23:35.939Z,100313.50
2023-01-05T03:26:21.023Z,100304.97
2023-01-05T03:29:15.802Z,100322.25
2023-01-05T03:32:06.253Z,100320.44
2023-01-05T03:35:05.373Z,100314.34
2023-01-05T03:37:35.633Z,100329.91
2023-01-05T03:40:03.456Z,100319.44
2023-01-05T03:42:30.411Z,100322.16
2023-01-05T03:44:56.864Z,100327.34
2023-01-05T03:47:23.831Z,100322.13
2023-01-05T03:49:51.161Z,100322.25
2023-01-05T03:52:17.591Z,100333.56
2023-01-05T03:54:44.006Z,100321.41
2023-01-05T03:57:10.455Z,100330.78
2023-01-05T03:59:36.913Z,100324.72
2023-01-05T04:02:04.774Z,100322.88
2023-01-05T04:04:31.367Z,100321.13
2023-01-05T04:06:57.815Z,100331.59
2023-01-05T04:09:24.240Z,100344.47
2023-01-05T04:11:50.660Z,100346.28
2023-01-05T04:14:17.066Z,100334.84
2023-01-05T04:16:43.503Z,100342.75
2023-01-05T04:19:10.677Z,100341.78
2023-01-05T04:21:37.144Z,100342.75
2023-01-05T04:24:03.695Z,100348.88
2023-01-05T04:26:30.103Z,100347.84
2023-01-05T04:28:56.557Z,100336.69
2023-01-05T04:31:23.007Z,100346.97
2023-01-05T04:33:49.452Z,100342.59
2023-01-05T04:36:15.852Z,100351.28
2023-01-05T04:38:42.250Z,100334.84
2023-01-05T04:41:08.647Z,100332.13
2023-01-05T04:43:35.079Z,100332.97
2023-01-05T04:46:01.577Z,100329.47
2023-01-05T04:48:27.998Z,100329.38
2023-01-05T04:50:55.349Z,100337.97
2023-01-05T04:53:23.251Z,100341.47
2023-01-05T04:55:50.435Z,100346.50
2023-01-05T04:58:17.035Z,100364.56
2023-01-05T05:00:43.494Z,100362.06
2023-01-05T05:03:10.042Z,100374.09
2023-01-05T05:05:36.568Z,100371.28
2023-01-05T05:08:02.988Z,100368.81
2023-01-05T05:10:29.392Z,100377.44
2023-01-05T05:12:55.801Z,100367.06
2023-01-05T05:15:22.225Z,100370.56
2023-01-05T05:17:48.693Z,100367.09
2023-01-05T05:20:15.263Z,100386.19
2023-01-05T05:22:41.676Z,100389.66
2023-01-05T05:25:08.566Z,100371.56
2023-01-05T05:27:35.031Z,100383.66
2023-01-05T05:30:01.443Z,100375.03
2023-01-05T05:32:27.846Z,100384.69
2023-01-05T05:34:54.293Z,100386.53
2023-01-05T05:37:20.732Z,100389.28
2023-01-05T05:39:47.143Z,100390.97
2023-01-05T05:42:13.569Z,100395.94
2023-01-05T05:44:39.978Z,100389.94
2023-01-05T05:47:06.455Z,100396.16
2023-01-05T05:49:32.971Z,100385.84
2023-01-05T05:51:59.396Z,100402.13
2023-01-05T05:54:26.027Z,100409.81
2023-01-05T05:56:52.496Z,100408.06
2023-01-05T05:59:18.948Z,100408.09
2023-01-05T06:01:45.428Z,100419.19
2023-01-05T06:04:12.132Z,100420.06
2023-01-05T06:06:39.776Z,100414.03
2023-01-05T06:09:06.386Z,100414.22
2023-01-05T06:11:32.952Z,100416.72
2023-01-05T06:13:59.468Z,100426.16
2023-01-05T06:16:25.945Z,100440.94
2023-01-05T06:18:52.427Z,100451.47
2023-01-05T06:21:19.746Z,100425.50
2023-01-05T06:23:46.148Z,100430.56
2023-01-05T06:26:12.546Z,100443.50
2023-01-05T06:28:39.014Z,100437.38
2023-01-05T06:31:05.727Z,100443.19
2023-01-05T06:33:32.238Z,100438.22
2023-01-05T06:35:58.845Z,100438.22
2023-01-05T06:38:26.097Z,100462.50
2023-01-05T06:40:52.567Z,100461.50
2023-01-05T06:43:19.117Z,100458.66
2023-01-05T06:45:45.554Z,100457.63
2023-01-05T06:48:12.013Z,100475.66
2023-01-05T06:50:38.484Z,100455.94
2023-01-05T06:53:04.905Z,100464.41
2023-01-05T06:55:31.387Z,100477.50
2023-01-05T06:58:00.999Z,100472.03
2023-01-05T07:00:28.043Z,100481.63
2023-01-05T07:02:54.486Z,100491.31
2023-01-05T07:05:22.649Z,100502.44
2023-01-05T07:07:49.050Z,100492.06
2023-01-05T07:10:15.533Z,100506.69
2023-01-05T07:12:41.925Z,100493.81
2023-01-05T07:15:09.209Z,100505.97
2023-01-05T07:17:36.561Z,100486.78
2023-01-05T07:20:04.715Z,100504.03
2023-01-05T07:22:31.119Z,100503.38
2023-01-05T07:24:58.819Z,100504.09
2023-01-05T07:27:25.620Z,100507.75
2023-01-05T07:29:52.036Z,100513.75
2023-01-05T07:32:18.636Z,100520.72
2023-01-05T07:34:54.531Z,100532.63
2023-01-05T07:37:22.013Z,100521.53
2023-01-05T07:39:48.432Z,100543.09
2023-01-05T07:42:14.854Z,100530.28
2023-01-05T07:44:41.301Z,100531.22
2023-01-05T07:47:07.715Z,100515.72
2023-01-05T07:49:34.159Z,100523.50
2023-01-05T07:52:00.672Z,100532.94
2023-01-05T07:54:27.509Z,100542.53
2023-01-05T07:56:54.104Z,100539.84
2023-01-05T07:59:21.570Z,100551.88
2023-01-05T08:01:51.878Z,100554.47
2023-01-05T08:04:18.422Z,100558.78
2023-01-05T08:06:44.970Z,100540.66
2023-01-05T08:09:40.724Z,100547.63
2023-01-05T08:12:07.342Z,100558.88
2023-01-05T08:14:34.776Z,100553.59
2023-01-05T08:17:02.232Z,100575.22
2023-01-05T08:19:29.655Z,100545.06
2023-01-05T08:21:56.085Z,100576.00
2023-01-05T08:24:22.487Z,100566.59
2023-01-05T08:26:50.759Z,100573.59
2023-01-05T08:29:17.250Z,100573.78
2023-01-05T08:31:43.735Z,100578.06
2023-01-05T08:34:10.251Z,100579.06
2023-01-05T08:36:37.670Z,100588.66
2023-01-05T08:39:04.221Z,100593.94
2023-01-05T08:41:33.449Z,100595.59
2023-01-05T08:44:01.249Z,100596.53
2023-01-05T08:46:29.712Z,100594.69
2023-01-05T08:48:59.901Z,100599.91
2023-01-05T08:51:26.807Z,100622.38
2023-01-05T08:53:53.285Z,100611.81
2023-01-05T08:56:20.263Z,100597.13
2023-01-05T08:58:46.753Z,100605.59
2023-01-05T09:01:16.138Z,100627.38
2023-01-05T09:03:43.863Z,100613.38
2023-01-05T09:06:12.389Z,100628.25
2023-01-05T09:08:39.710Z,100622.19
2023-01-05T09:11:17.805Z,100645.63
2023-01-05T09:13:49.695Z,100648.31
2023-01-05T09:16:29.008Z,100648.25
2023-01-05T09:19:05.397Z,100654.09
2023-01-05T09:21:31.816Z,100655.91
2023-01-05T09:23:59.042Z,100658.63
2023-01-05T09:26:25.478Z,100653.59
2023-01-05T09:28:51.885Z,100674.63
2023-01-05T09:31:20.374Z,100654.81
2023-01-05T09:33:47.941Z,100662.59
2023-01-05T09:36:16.377Z,100672.34
2023-01-05T09:38:47.020Z,100697.47
2023-01-05T09:41:26.004Z,100702.59
2023-01-05T09:43:56.251Z,100694.16
2023-01-05T09:46:37.707Z,100700.34
2023-01-05T09:49:06.850Z,100708.97
2023-01-05T09:51:33.862Z,100716.00
2023-01-05T09:54:01.466Z,100718.31
2023-01-05T09:57:08.480Z,100731.97
2023-01-05T09:59:35.035Z,100723.34
2023-01-05T10:02:05.460Z,100736.34
2023-01-05T10:04:33.767Z,100750.03
2023-01-05T10:07:04.351Z,100742.84
2023-01-05T10:09:38.138Z,100756.53
2023-01-05T10:12:43.078Z,100754.59
2023-01-05T10:15:21.542Z,100767.94
2023-01-05T10:17:48.077Z,100777.91
2023-01-05T10:20:16.341Z,100760.78
2023-01-05T10:22:58.696Z,100773.72
2023-01-05T10:25:47.742Z,100771.56
2023-01-05T10:28:32.717Z,100783.53
2023-01-05T10:31:03.536Z,100782.59
2023-01-05T10:33:54.646Z,100793.97
2023-01-05T10:37:07.240Z,100806.94
2023-01-05T10:40:11.127Z,100801.81
2023-01-05T10:43:06.201Z,100798.69
2023-01-05T10:45:32.649Z,100793.69
2023-01-05T10:47:59.810Z,100813.59
2023-01-05T10:50:35.980Z,100810.84
2023-01-05T10:53:12.858Z,100805.06
2023-01-05T10:55:59.322Z,100816.84
2023-01-05T10:58:31.303Z,100814.81
2023-01-05T11:01:19.640Z,100826.22
2023-01-05T11:06:36.394Z,100825.84
2023-01-05T11:09:21.640Z,100849.25
2023-01-05T11:11:58.563Z,100840.47
2023-01-05T11:14:25.852Z,100848.94
2023-01-05T11:16:54.201Z,100868.72
2023-01-05T11:19:31.333Z,100847.84
2023-01-05T11:22:01.881Z,100857.72
2023-01-05T11:24:31.375Z,100858.00
2023-01-05T11:27:03.426Z,100870.50
2023-01-05T11:29:30.914Z,100863.41
2023-01-05T11:32:00.261Z,100861.72
2023-01-05T11:34:29.867Z,100875.69
2023-01-05T11:37:02.554Z,100884.84
2023-01-05T11:39:33.607Z,100876.38
2023-01-05T11:42:12.362Z,100884.41
2023-01-05T11:44:40.869Z,100884.53
2023-01-05T11:47:08.024Z,100884.53
2023-01-05T11:49:35.137Z,100882.72
2023-01-05T11:52:01.695Z,100884.66
2023-01-05T11:54:36.993Z,100897.63
2023-01-05T11:57:13.987Z,100900.22
2023-01-05T11:59:40.840Z,100895.03
2023-01-05T12:02:17.482Z,100899.22
2023-01-05T12:05:18.077Z,100917.22
2023-01-05T12:07:50.070Z,100912.09
2023-01-05T12:10:45.425Z,100910.19
2023-01-05T12:13:30.134Z,100921.84
2023-01-05T12:16:17.761Z,100922.84
2023-01-05T12:19:05.617Z,100926.41
2023-01-05T12:21:38.784Z,100929.94
2023-01-05T12:24:31.708Z,100932.81
2023-01-05T12:27:24.526Z,100948.28
2023-01-05T12:31:53.352Z,100937.13
2023-01-05T12:36:07.891Z,100943.47
2023-01-05T12:38:40.287Z,100950.56
2023-01-05T12:41:26.707Z,100951.28
2023-01-05T12:44:23.972Z,100967.50
2023-01-05T12:47:15.149Z,100961.91
2023-01-05T12:49:45.969Z,100968.31
2023-01-05T12:52:21.189Z,100971.03
2023-01-05T12:55:24.045Z,100990.19
2023-01-05T12:58:14.944Z,100980.91
2023-01-05T13:00:46.060Z,100984.41
2023-01-05T13:03:44.709Z,100985.47
2023-01-05T13:06:20.423Z,100997.41
2023-01-05T13:09:03.472Z,101004.09
2023-01-05T13:11:40.552Z,101004.31
2023-01-05T13:14:16.044Z,101009.75
2023-01-05T13:16:58.757Z,101009.38
2023-01-05T13:19:29.899Z,101018.88
2023-01-05T13:21:58.134Z,101020.47
2023-01-05T13:24:31.294Z,101020.94
2023-01-05T13:26:59.370Z,101027.06
2023-01-05T13:29:36.091Z,101029.59
2023-01-05T13:35:04.159Z,101033.53
2023-01-05T13:37:49.570Z,101038.59
2023-01-05T13:40:34.429Z,101033.34
2023-01-05T13:43:34.775Z,101034.25
2023-01-05T13:46:09.356Z,101037.72
2023-01-05T13:49:02.908Z,101041.19
2023-01-05T13:51:54.933Z,101051.28
2023-01-05T13:54:59.838Z,101055.50
2023-01-05T13:57:29.435Z,101059.63
2023-01-05T14:00:07.725Z,101056.94
2023-01-05T14:02:38.851Z,101064.50
2023-01-05T14:05:30.260Z,101070.38
2023-01-05T14:07:57.919Z,101064.19
2023-01-05T14:10:27.466Z,101075.16
2023-01-05T14:12:56.701Z,101074.19
2023-01-05T14:15:37.408Z,101087.00
2023-01-05T14:18:08.512Z,101096.41
2023-01-05T14:20:49.428Z,101095.38
2023-01-05T14:23:30.103Z,101099.50
2023-01-05T14:26:03.202Z,101102.59
2023-01-05T14:28:35.578Z,101108.78
2023-01-05T14:31:07.943Z,101115.66
2023-01-05T14:33:54.438Z,101116.56
2023-01-05T14:36:41.635Z,101124.31
2023-01-05T14:39:20.173Z,101125.91
2023-01-05T14:42:13.953Z,101126.66
2023-01-05T14:44:46.271Z,101136.78
2023-01-05T14:47:13.133Z,101140.94
2023-01-05T14:49:43.888Z,101135.63
2023-01-05T14:52:19.863Z,101149.38
2023-01-05T14:54:46.994Z,101157.91
2023-01-05T14:57:20.622Z,101160.31
2023-01-05T14:59:47.258Z,101168.91
2023-01-05T15:02:18.840Z,101178.22
2023-01-05T15:04:45.459Z,101174.59
2023-01-05T15:07:26.404Z,101176.16
2023-01-05T15:10:25.256Z,101183.81
2023-01-05T15:13:02.225Z,101195.00
2023-01-05T15:15:41.948Z,101193.88
2023-01-05T15:18:20.927Z,101198.84
2023-01-05T15:21:05.459Z,101199.59
2023-01-05T15:24:09.542Z,101204.56
2023-01-05T15:26:54.097Z,101205.25
2023-01-05T15:30:05.629Z,101203.31
2023-01-05T15:32:39.525Z,101199.59
2023-01-05T15:35:29.968Z,101215.03
2023-01-05T15:37:56.415Z,101216.75
2023-01-05T15:40:22.774Z,101222.72
2023-01-05T15:42:52.646Z,101229.53
2023-01-05T15:45:23.260Z,101226.94
2023-01-05T15:47:50.046Z,101244.16
2023-01-05T15:50:22.535Z,101239.56
2023-01-05T15:52:54.985Z,101234.22
2023-01-05T15:55:21.813Z,101240.19
2023-01-05T15:57:57.102Z,101246.84
2023-01-05T16:00:27.283Z,101234.72
2023-01-05T16:02:54.096Z,101243.28
2023-01-05T16:05:22.999Z,101248.28
2023-01-05T16:08:00.754Z,101255.16
2023-01-05T16:10:39.474Z,101266.38
2023-01-05T16:13:17.779Z,101260.25
2023-01-05T16:15:47.870Z,101258.47
2023-01-05T16:18:18.023Z,101262.75
2023-01-05T16:20:47.188Z,101268.81
2023-01-05T16:23:26.619Z,101272.19
2023-01-05T16:25:56.675Z,101269.31
2023-01-05T16:28:24.091Z,101272.69
2023-01-05T16:30:51.792Z,101275.97
2023-01-05T16:33:34.940Z,101278.50
2023-01-05T16:36:09.213Z,101281.88
2023-01-05T16:38:35.706Z,101283.66
2023-01-05T16:41:13.342Z,101284.38
2023-01-05T16:43:39.641Z,101287.94
2023-01-05T16:46:20.435Z,101294.00
2023-01-05T16:48:51.217Z,101307.75
2023-01-05T16:51:18.624Z,101301.75
2023-01-05T16:53:47.298Z,101305.16
2023-01-05T16:56:32.038Z,101316.16
2023-01-05T16:58:59.796Z,101314.38
2023-01-05T17:01:37.592Z,101315.00
2023-01-05T17:04:13.836Z,101320.19
2023-01-05T17:06:45.163Z,101329.53
2023-01-05T17:09:31.809Z,101329.44
2023-01-05T17:11:58.268Z,101326.78
2023-01-05T17:14:26.304Z,101327.75
2023-01-05T17:16:54.362Z,101324.91
2023-01-05T17:19:21.498Z,101327.44
2023-01-05T17:21:55.161Z,101334.22
2023-01-05T17:24:21.774Z,101333.25
2023-01-05T17:26:48.275Z,101330.66
2023-01-05T17:29:21.819Z,101337.44
2023-01-05T17:31:48.511Z,101333.84
2023-01-05T17:34:15.007Z,101337.00
2023-01-05T17:36:41.644Z,101331.75
2023-01-05T17:39:11.894Z,101337.56
2023-01-05T17:41:38.323Z,101338.31
2023-01-05T17:44:04.812Z,101347.69
2023-01-05T17:46:32.974Z,101349.22
2023-01-05T17:49:00.568Z,101363.66
2023-01-05T17:51:30.523Z,101360.91
2023-01-05T17:53:58.190Z,101365.06
2023-01-05T17:56:25.173Z,101371.84
2023-01-05T17:58:51.920Z,101371.75
2023-01-05T18:01:18.656Z,101368.22
2023-01-05T18:03:45.186Z,101366.34
2023-01-05T18:06:11.727Z,101378.09
2023-01-05T18:08:38.299Z,101378.72
2023-01-05T18:11:05.829Z,101370.63
2023-01-05T18:13:32.340Z,101371.34
2023-01-05T18:18:30.359Z,101373.59
2023-01-05T18:20:59.850Z,101380.19
2023-01-05T18:23:26.295Z,101378.25
2023-01-05T18:25:52.856Z,101387.56
2023-01-05T18:28:19.332Z,101384.81
2023-01-05T18:30:46.607Z,101387.22
2023-01-05T18:35:44.389Z,101390.59
2023-01-05T18:38:10.980Z,101389.53
2023-01-05T18:40:37.996Z,101382.59
2023-01-05T18:43:04.447Z,101380.91
2023-01-05T18:45:40.334Z,101377.31
2023-01-05T18:48:07.686Z,101358.34
2023-01-05T18:50:34.175Z,101360.94
2023-01-05T18:53:00.577Z,101360.84
2023-01-05T18:55:27.196Z,101360.75
2023-01-05T18:57:53.613Z,101355.59
2023-01-05T19:00:20.158Z,101368.41
2023-01-05T19:02:46.570Z,101364.06
2023-01-05T19:05:13.078Z,101372.59
2023-01-05T19:08:13.850Z,101381.13
2023-01-05T19:10:40.487Z,101383.72
2023-01-05T19:13:07.136Z,101382.81
2023-01-05T19:15:36.433Z,101384.59
2023-01-05T19:18:02.892Z,101389.06
2023-01-05T19:20:29.376Z,101383.09
2023-01-05T19:22:55.816Z,101385.69
2023-01-05T19:25:22.315Z,101389.22
2023-01-05T19:27:48.740Z,101381.56
2023-01-05T19:30:17.611Z,101394.59
2023-01-05T19:32:44.118Z,101403.31
2023-01-05T19:35:10.526Z,101392.19
2023-01-05T19:37:39.052Z,101392.38
2023-01-05T19:40:05.948Z,101396.03
2023-01-05T19:42:32.382Z,101401.28
2023-01-05T19:44:59.527Z,101392.84
2023-01-05T19:47:25.959Z,101399.06
2023-01-05T19:49:55.176Z,101403.63
2023-01-05T19:52:21.602Z,101398.53
2023-01-05T19:54:48.334Z,101385.72
2023-01-05T19:57:14.753Z,101389.31
2023-01-05T19:59:41.159Z,101392.00
2023-01-05T20:02:07.783Z,101399.03
2023-01-05T20:04:35.284Z,101399.94
2023-01-05T20:07:03.905Z,101399.13
2023-01-05T20:09:30.654Z,101393.97
2023-01-05T20:12:09.260Z,101403.56
2023-01-05T20:14:40.093Z,101394.13
2023-01-05T20:17:09.055Z,101399.28
2023-01-05T20:19:36.816Z,101408.03
2023-01-05T20:22:05.240Z,101403.75
2023-01-05T20:24:33.439Z,101409.06
2023-01-05T20:27:02.363Z,101415.94
2023-01-05T20:29:29.376Z,101409.28
2023-01-05T20:32:14.733Z,101410.34
2023-01-05T20:34:43.219Z,101408.75
2023-01-05T20:37:10.846Z,101404.47
2023-01-05T20:39:39.673Z,101404.63
2023-01-05T20:42:06.147Z,101403.06
2023-01-05T20:44:36.309Z,101408.22
2023-01-05T20:47:03.676Z,101415.16
2023-01-05T20:49:31.340Z,101416.16
2023-01-05T20:51:58.785Z,101413.56
2023-01-05T20:54:25.701Z,101421.41
2023-01-05T20:56:52.301Z,101424.78
2023-01-05T20:59:27.081Z,101422.28
2023-01-05T21:01:53.853Z,101423.91
2023-01-05T21:04:20.792Z,101423.91
2023-01-05T21:06:49.097Z,101429.88
2023-01-05T21:09:15.540Z,101428.09
2023-01-05T21:11:41.946Z,101423.91
2023-01-05T21:14:08.944Z,101424.78
2023-01-05T21:16:38.250Z,101424.88
2023-01-05T21:19:05.752Z,101424.88
2023-01-05T21:21:32.220Z,101428.34
2023-01-05T21:23:58.928Z,101425.84
2023-01-05T21:26:25.442Z,101421.56
2023-01-05T21:28:53.078Z,101421.66
2023-01-05T21:31:23.044Z,101424.22
2023-01-05T21:33:49.639Z,101426.81
2023-01-05T21:36:20.447Z,101419.06
2023-01-05T21:39:00.743Z,101416.41
2023-01-05T21:41:50.752Z,101425.84
2023-01-05T21:44:17.753Z,101416.31
2023-01-05T21:46:44.172Z,101413.91
2023-01-05T21:49:11.556Z,101414.88
2023-01-05T21:51:57.119Z,101408.09
2023-01-05T21:54:42.286Z,101408.22
2023-01-05T21:57:08.710Z,101415.16
2023-01-05T21:59:35.249Z,101415.25
2023-01-05T22:02:01.678Z,101411.94
2023-01-05T22:04:28.113Z,101417.19
2023-01-05T22:06:54.514Z,101415.59
2023-01-05T22:09:20.947Z,101414.78
2023-01-05T22:11:47.360Z,101418.34
2023-01-05T22:14:13.893Z,101416.75
2023-01-05T22:16:49.305Z,101420.31
2023-01-05T22:19:15.743Z,101414.34
2023-01-05T22:21:42.247Z,101416.91
2023-01-05T22:24:09.501Z,101414.41
2023-01-05T22:26:35.966Z,101404.16
2023-01-05T22:29:02.463Z,101411.03
2023-01-05T22:31:30.044Z,101411.91
2023-01-05T22:33:59.133Z,101404.25
2023-01-05T22:36:27.616Z,101393.91
2023-01-05T22:38:55.438Z,101405.22
2023-01-05T22:41:24.346Z,101407.88
2023-01-05T22:43:51.362Z,101410.47
2023-01-05T22:46:20.057Z,101417.41
2023-01-05T22:48:47.736Z,101413.19
2023-01-05T22:51:25.463Z,101419.22
2023-01-05T22:53:52.399Z,101415.75
2023-01-05T22:56:20.374Z,101419.31
2023-01-05T22:58:46.998Z,101413.25
2023-01-05T23:01:17.145Z,101416.72
2023-01-05T23:03:43.571Z,101413.25
2023-01-05T23:06:10.660Z,101415.03
2023-01-05T23:08:38.835Z,101416.72
2023-01-05T23:11:11.453Z,101415.84
2023-01-05T23:13:38.378Z,101410.69
2023-01-05T23:16:05.638Z,101410.69
2023-01-05T23:18:34.546Z,101412.25
2023-01-05T23:21:03.800Z,101404.50
2023-01-05T23:23:30.305Z,101407.09
2023-01-05T23:25:56.928Z,101401.03
2023-01-05T23:28:24.442Z,101400.13
2023-01-05T23:30:53.449Z,101400.25
2023-01-05T23:33:21.580Z,101397.66
2023-01-05T23:35:50.715Z,101399.44
2023-01-05T23:38:17.422Z,101393.38
2023-01-05T23:40:45.596Z,101383.94
2023-01-05T23:43:13.143Z,101379.56
2023-01-05T23:45:42.766Z,101383.03
2023-01-05T23:48:09.792Z,101369.22
2023-01-05T23:50:36.217Z,101371.00
2023-01-05T23:53:03.593Z,101370.19
2023-01-05T23:55:30.108Z,101367.59
2023-01-05T23:57:56.738Z,101365.91
